DGPHX EDDN-EDML

Flight info

Callsign DGPHX
Flight time 0h 38m
Altitude 5500
Route /
Aircraft DA62/L-SDE2/YES

Departure

Time 2026-04-14 14:51
Airport Nuremberg Airport (EDDN)

Arrival

Time 2026-04-14 15:29
Airport Landshut Airfield (EDML)
Time Latitude Longitude Altitude Speed Heading
2026-04-14 14:34 49.49546 11.07134 1019 ft 0 kts
2026-04-14 14:43 49.49552 11.07138 1019 ft 4 kts 32°
2026-04-14 14:44 49.49572 11.07148 1020 ft 5 kts 14°
2026-04-14 14:44 49.49603 11.07217 1021 ft 9 kts 11°
2026-04-14 14:44 49.49648 11.07228 1021 ft 13 kts 355°
2026-04-14 14:44 49.49725 11.07273 1021 ft 13 kts 65°
2026-04-14 14:45 49.49717 11.07404 1023 ft 18 kts 97°
2026-04-14 14:45 49.49692 11.07664 1027 ft 3 kts 98°
2026-04-14 14:45 49.49686 11.07728 1027 ft 9 kts 91°
2026-04-14 14:45 49.49654 11.07792 1026 ft 4 kts 118°
2026-04-14 14:46 49.49640 11.07929 1025 ft 22 kts 100°
2026-04-14 14:46 49.49611 11.08228 1026 ft 26 kts 99°
2026-04-14 14:46 49.49602 11.08379 1026 ft 12 kts 69°
2026-04-14 14:46 49.49641 11.08436 1025 ft 0 kts 60°
2026-04-14 14:49 49.49642 11.08440 1025 ft 6 kts 57°
2026-04-14 14:49 49.49708 11.08556 1025 ft 17 kts 24°
2026-04-14 14:50 49.49802 11.08486 1024 ft 16 kts 285°
2026-04-14 14:50 49.49811 11.08392 1024 ft 20 kts 277°
2026-04-14 14:50 49.49864 11.07859 1029 ft 75 kts 278°
2026-04-14 14:50 49.49950 11.06928 1174 ft 96 kts 279°
2026-04-14 14:51 49.50049 11.05937 1527 ft 95 kts 276°
2026-04-14 14:51 49.50121 11.04867 1791 ft 103 kts 266°
2026-04-14 14:51 49.49613 11.04203 2028 ft 114 kts 172°
2026-04-14 14:51 49.48890 11.04859 2231 ft 125 kts 136°
2026-04-14 14:52 49.48506 11.06053 2406 ft 139 kts 97°
2026-04-14 14:52 49.48410 11.07639 2418 ft 158 kts 93°
2026-04-14 14:52 49.48329 11.09368 2398 ft 170 kts 102°
2026-04-14 14:52 49.47713 11.10888 2474 ft 172 kts 144°
2026-04-14 14:53 49.46694 11.11738 2440 ft 178 kts 150°
2026-04-14 14:53 49.45632 11.12744 2462 ft 180 kts 149°
2026-04-14 14:53 49.44552 11.13757 2459 ft 182 kts 149°
2026-04-14 14:53 49.43466 11.14767 2463 ft 183 kts 149°
2026-04-14 14:54 49.42371 11.15776 2460 ft 183 kts 149°
2026-04-14 14:54 49.41302 11.16798 2460 ft 184 kts 143°
2026-04-14 14:54 49.40369 11.18163 2460 ft 186 kts 134°
2026-04-14 14:54 49.39473 11.19591 2463 ft 185 kts 134°
2026-04-14 14:55 49.38579 11.21019 2457 ft 185 kts 134°
2026-04-14 14:55 49.37687 11.22446 2461 ft 186 kts 134°
2026-04-14 14:55 49.36824 11.23825 2695 ft 173 kts 134°
2026-04-14 14:55 49.36009 11.25129 2947 ft 166 kts 134°
2026-04-14 14:56 49.34451 11.27623 3438 ft 158 kts 134°
2026-04-14 14:56 49.33627 11.28693 3678 ft 155 kts 158°
2026-04-14 14:56 49.32597 11.29131 3930 ft 153 kts 167°
2026-04-14 14:57 49.31558 11.29522 4180 ft 154 kts 166°
2026-04-14 14:57 49.30535 11.29971 4430 ft 152 kts 163°
2026-04-14 14:57 49.29530 11.30474 4676 ft 152 kts 162°
2026-04-14 14:57 49.28528 11.30994 4930 ft 152 kts 162°
2026-04-14 14:58 49.27527 11.31516 5182 ft 152 kts 162°
2026-04-14 14:58 49.26523 11.32038 5302 ft 161 kts 162°
2026-04-14 14:58 49.25423 11.32610 5306 ft 172 kts 162°
2026-04-14 14:58 49.24257 11.33218 5310 ft 181 kts 162°
2026-04-14 14:59 49.23050 11.33845 5314 ft 185 kts 162°
2026-04-14 14:59 49.21819 11.34485 5315 ft 188 kts 162°
2026-04-14 14:59 49.20574 11.35132 5310 ft 189 kts 162°
2026-04-14 14:59 49.19322 11.35783 5316 ft 191 kts 161°
2026-04-14 15:00 49.18490 11.36215 5309 ft 191 kts 162°
2026-04-14 15:00 49.17228 11.36870 5311 ft 191 kts 162°
2026-04-14 15:00 49.15966 11.37524 5312 ft 192 kts 162°
2026-04-14 15:00 49.14701 11.38180 5311 ft 192 kts 162°
2026-04-14 15:01 49.13440 11.38834 5314 ft 191 kts 162°
2026-04-14 15:01 49.12179 11.39486 5310 ft 191 kts 162°
2026-04-14 15:01 49.10920 11.40137 5314 ft 191 kts 162°
2026-04-14 15:01 49.09657 11.40791 5317 ft 191 kts 162°
2026-04-14 15:02 49.08393 11.41444 5315 ft 192 kts 162°
2026-04-14 15:02 49.07126 11.42098 5314 ft 192 kts 162°
2026-04-14 15:02 49.05863 11.42751 5314 ft 192 kts 162°
2026-04-14 15:02 49.04602 11.43402 5315 ft 192 kts 162°
2026-04-14 15:03 49.03338 11.44054 5314 ft 192 kts 162°
2026-04-14 15:03 49.02094 11.44695 5312 ft 191 kts 162°
2026-04-14 15:03 49.00832 11.45345 5311 ft 191 kts 162°
2026-04-14 15:03 48.99573 11.45993 5354 ft 189 kts 162°
2026-04-14 15:04 48.98344 11.46628 5477 ft 185 kts 161°
2026-04-14 15:04 48.97117 11.47258 5498 ft 187 kts 162°
2026-04-14 15:04 48.95871 11.47898 5496 ft 190 kts 162°
2026-04-14 15:04 48.94615 11.48544 5499 ft 191 kts 162°
2026-04-14 15:05 48.93350 11.49194 5497 ft 192 kts 162°
2026-04-14 15:05 48.92082 11.49845 5500 ft 193 kts 162°
2026-04-14 15:05 48.90811 11.50497 5497 ft 193 kts 162°
2026-04-14 15:05 48.89543 11.51148 5497 ft 192 kts 162°
2026-04-14 15:06 48.88278 11.51796 5497 ft 192 kts 162°
2026-04-14 15:06 48.87014 11.52443 5497 ft 192 kts 162°
2026-04-14 15:06 48.85769 11.53081 5497 ft 191 kts 162°
2026-04-14 15:06 48.84507 11.53726 5497 ft 191 kts 162°
2026-04-14 15:07 48.83245 11.54372 5499 ft 192 kts 162°
2026-04-14 15:07 48.81975 11.55021 5498 ft 192 kts 162°
2026-04-14 15:07 48.80708 11.55669 5498 ft 192 kts 162°
2026-04-14 15:07 48.79439 11.56317 5498 ft 192 kts 162°
2026-04-14 15:08 48.78170 11.56965 5499 ft 192 kts 162°
2026-04-14 15:08 48.76899 11.57612 5497 ft 192 kts 162°
2026-04-14 15:08 48.75630 11.58259 5500 ft 193 kts 162°
2026-04-14 15:08 48.74359 11.58907 5497 ft 193 kts 162°
2026-04-14 15:09 48.73088 11.59555 5497 ft 192 kts 162°
2026-04-14 15:09 48.71837 11.60191 5497 ft 192 kts 162°
2026-04-14 15:09 48.70569 11.60837 5497 ft 192 kts 162°
2026-04-14 15:09 48.69280 11.61492 5374 ft 198 kts 162°
2026-04-14 15:10 48.67964 11.62160 5254 ft 201 kts 162°
2026-04-14 15:10 48.66631 11.62836 5131 ft 203 kts 162°
2026-04-14 15:10 48.65286 11.63521 5003 ft 203 kts 162°
2026-04-14 15:10 48.63943 11.64202 4879 ft 203 kts 162°
2026-04-14 15:11 48.62599 11.64882 4758 ft 204 kts 162°
2026-04-14 15:11 48.61255 11.65564 4625 ft 204 kts 162°
2026-04-14 15:11 48.59929 11.66236 4507 ft 204 kts 162°
2026-04-14 15:11 48.58649 11.67136 4364 ft 205 kts 146°
2026-04-14 15:12 48.57485 11.68468 4108 ft 209 kts 142°
2026-04-14 15:12 48.56345 11.69814 3810 ft 213 kts 142°
2026-04-14 15:12 48.55159 11.71119 3434 ft 209 kts 146°
2026-04-14 15:12 48.53956 11.72322 3058 ft 206 kts 147°
2026-04-14 15:13 48.52793 11.73470 2678 ft 190 kts 147°
2026-04-14 15:13 48.51757 11.74497 2539 ft 163 kts 147°
2026-04-14 15:13 48.50887 11.75362 2525 ft 139 kts 147°
2026-04-14 15:13 48.50099 11.76148 2518 ft 133 kts 147°
2026-04-14 15:14 48.49305 11.76944 2528 ft 146 kts 147°
2026-04-14 15:14 48.48407 11.77830 2545 ft 161 kts 147°
2026-04-14 15:14 48.47468 11.78756 2535 ft 159 kts 147°
2026-04-14 15:14 48.46489 11.79452 2534 ft 155 kts 173°
2026-04-14 15:15 48.45418 11.79548 2537 ft 154 kts 178°
2026-04-14 15:15 48.44361 11.79746 2530 ft 153 kts 168°
2026-04-14 15:15 48.43347 11.80205 2527 ft 151 kts 162°
2026-04-14 15:15 48.42361 11.80698 2529 ft 150 kts 162°
2026-04-14 15:16 48.41369 11.81195 2534 ft 150 kts 162°
2026-04-14 15:16 48.40379 11.81691 2523 ft 150 kts 162°
2026-04-14 15:16 48.39431 11.82150 2520 ft 127 kts 169°
2026-04-14 15:16 48.38995 11.81475 2512 ft 107 kts 302°
2026-04-14 15:17 48.39701 11.81525 2357 ft 126 kts 46°
2026-04-14 15:17 48.39833 11.82675 2474 ft 119 kts 148°
2026-04-14 15:17 48.38978 11.83115 2516 ft 141 kts 164°
2026-04-14 15:17 48.37999 11.83616 2543 ft 158 kts 160°
2026-04-14 15:18 48.36893 11.83944 2537 ft 168 kts 182°
2026-04-14 15:18 48.35724 11.83643 2539 ft 174 kts 199°
2026-04-14 15:18 48.34596 11.82923 2546 ft 178 kts 205°
2026-04-14 15:18 48.33459 11.82138 2540 ft 180 kts 205°
2026-04-14 15:19 48.32353 11.81315 2536 ft 171 kts 212°
2026-04-14 15:19 48.31446 11.80402 2527 ft 145 kts 215°
2026-04-14 15:19 48.30678 11.79635 2522 ft 120 kts 229°
2026-04-14 15:19 48.30599 11.78572 2544 ft 114 kts 308°
2026-04-14 15:20 48.31417 11.78385 2548 ft 134 kts
2026-04-14 15:20 48.32420 11.78508 2541 ft 154 kts
2026-04-14 15:20 48.33523 11.78806 2544 ft 167 kts 10°
2026-04-14 15:20 48.34702 11.78964 2540 ft 174 kts 357°
2026-04-14 15:21 48.35930 11.78915 2542 ft 178 kts 359°
2026-04-14 15:21 48.37101 11.79502 2527 ft 183 kts 37°
2026-04-14 15:21 48.38046 11.80794 2533 ft 184 kts 42°
2026-04-14 15:21 48.39100 11.81855 2531 ft 184 kts 16°
2026-04-14 15:22 48.40370 11.82005 2528 ft 184 kts 357°
2026-04-14 15:22 48.41632 11.81739 2529 ft 183 kts 349°
2026-04-14 15:22 48.42892 11.81405 2532 ft 183 kts 349°
2026-04-14 15:22 48.44146 11.81069 2529 ft 183 kts 349°
2026-04-14 15:23 48.45406 11.80740 2528 ft 184 kts 351°
2026-04-14 15:23 48.46682 11.80621 2525 ft 184 kts
2026-04-14 15:23 48.47812 11.81461 2529 ft 186 kts 45°
2026-04-14 15:23 48.48589 11.82968 2719 ft 176 kts 54°
2026-04-14 15:24 48.49261 11.84446 2827 ft 175 kts 59°
2026-04-14 15:24 48.49814 11.86106 2827 ft 179 kts 64°
2026-04-14 15:24 48.50353 11.87816 2829 ft 178 kts 64°
2026-04-14 15:24 48.50821 11.89305 2822 ft 137 kts 64°
2026-04-14 15:25 48.51177 11.90432 2825 ft 104 kts 64°
2026-04-14 15:25 48.51532 11.91552 2847 ft 134 kts 64°
2026-04-14 15:25 48.51966 11.92936 2845 ft 156 kts 64°
2026-04-14 15:25 48.52470 11.94544 2483 ft 186 kts 64°
2026-04-14 15:26 48.53042 11.96363 2341 ft 191 kts 64°
2026-04-14 15:26 48.53607 11.98160 2343 ft 189 kts 64°
2026-04-14 15:26 48.54168 11.99942 2342 ft 187 kts 64°
2026-04-14 15:26 48.54661 12.01725 2342 ft 186 kts 70°
2026-04-14 15:27 48.55096 12.03562 2341 ft 186 kts 70°
2026-04-14 15:27 48.55366 12.05365 2318 ft 151 kts 97°
2026-04-14 15:27 48.54896 12.06446 2335 ft 117 kts 155°
2026-04-14 15:27 48.54051 12.06954 2346 ft 143 kts 159°
2026-04-14 15:28 48.53057 12.07504 2341 ft 158 kts 168°
2026-04-14 15:28 48.52231 12.07204 2298 ft 104 kts 228°
2026-04-14 15:28 48.51984 12.06267 1979 ft 99 kts 251°
2026-04-14 15:28 48.51730 12.05317 1624 ft 103 kts 248°
2026-04-14 15:29 48.51473 12.04412 1367 ft 89 kts 246°
2026-04-14 15:29 48.51262 12.03676 1321 ft 49 kts 245°
2026-04-14 15:29 48.51169 12.03364 1319 ft 18 kts 256°
2026-04-14 15:29 48.51235 12.03333 1318 ft 8 kts 57°
2026-04-14 15:30 48.51273 12.03470 1319 ft 18 kts 75°
2026-04-14 15:30 48.51292 12.03607 1321 ft 15 kts 67°
2026-04-14 15:30 48.51340 12.03675 1319 ft 1 kts 100°
2026-04-14 15:30 48.51338 12.03678 1319 ft 0 kts 154°